createdAt,value
2023-05-13T00:01:38.458Z,14.80
2023-05-13T00:04:06.957Z,14.80
2023-05-13T00:06:34.899Z,14.80
2023-05-13T00:09:02.957Z,14.70
2023-05-13T00:11:30.923Z,14.70
2023-05-13T00:13:58.887Z,14.70
2023-05-13T00:16:28.709Z,14.70
2023-05-13T00:18:58.186Z,14.60
2023-05-13T00:21:26.154Z,14.60
2023-05-13T00:23:54.009Z,14.50
2023-05-13T00:26:22.541Z,14.50
2023-05-13T00:28:50.572Z,14.60
2023-05-13T00:31:18.488Z,14.40
2023-05-13T00:33:46.436Z,14.40
2023-05-13T00:36:15.882Z,14.30
2023-05-13T00:38:44.809Z,14.30
2023-05-13T00:41:13.428Z,14.30
2023-05-13T00:43:41.307Z,14.20
2023-05-13T00:46:09.379Z,14.20
2023-05-13T00:48:37.306Z,14.20
2023-05-13T00:51:05.716Z,14.20
2023-05-13T00:53:36.015Z,14.10
2023-05-13T00:56:03.877Z,14.10
2023-05-13T00:58:31.837Z,14.00
2023-05-13T01:01:08.397Z,14.00
2023-05-13T01:03:44.524Z,14.00
2023-05-13T01:06:17.670Z,13.90
2023-05-13T01:08:58.033Z,13.90
2023-05-13T01:11:28.840Z,13.90
2023-05-13T01:14:03.774Z,13.90
2023-05-13T01:16:36.761Z,13.80
2023-05-13T01:19:15.392Z,13.80
2023-05-13T01:21:53.114Z,13.70
2023-05-13T01:24:21.094Z,13.70
2023-05-13T01:26:49.330Z,13.60
2023-05-13T01:29:17.931Z,13.60
2023-05-13T01:31:47.626Z,13.50
2023-05-13T01:34:16.311Z,13.50
2023-05-13T01:36:45.569Z,13.40
2023-05-13T01:39:14.210Z,13.40
2023-05-13T01:41:42.164Z,13.30
2023-05-13T01:44:10.053Z,13.30
2023-05-13T01:46:39.178Z,13.30
2023-05-13T01:49:08.941Z,13.20
2023-05-13T01:51:37.843Z,13.10
2023-05-13T01:54:07.054Z,13.10
2023-05-13T01:56:35.182Z,13.10
2023-05-13T01:59:03.272Z,13.00
2023-05-13T02:01:31.252Z,13.00
2023-05-13T02:03:59.959Z,12.90
2023-05-13T02:06:28.488Z,12.90
2023-05-13T02:08:56.452Z,12.90
2023-05-13T02:11:25.760Z,12.90
2023-05-13T02:13:53.756Z,12.80
2023-05-13T02:16:23.003Z,12.80
2023-05-13T02:18:51.433Z,12.80
2023-05-13T02:21:19.391Z,12.80
2023-05-13T02:23:47.545Z,12.70
2023-05-13T02:26:15.513Z,12.70
2023-05-13T02:28:45.583Z,12.70
2023-05-13T02:31:13.489Z,12.70
2023-05-13T02:33:41.387Z,12.70
2023-05-13T02:36:09.750Z,12.70
2023-05-13T02:38:37.694Z,12.70
2023-05-13T02:41:05.790Z,12.70
2023-05-13T02:43:34.183Z,12.70
2023-05-13T02:46:03.799Z,12.70
2023-05-13T02:48:31.843Z,12.70
2023-05-13T02:50:59.775Z,12.70
2023-05-13T02:53:28.133Z,12.70
2023-05-13T02:55:56.026Z,12.60
2023-05-13T02:58:23.957Z,12.60
2023-05-13T03:00:51.806Z,12.60
2023-05-13T03:03:21.079Z,12.60
2023-05-13T03:05:48.959Z,12.60
2023-05-13T03:08:16.935Z,12.60
2023-05-13T03:10:44.782Z,12.60
2023-05-13T03:13:12.642Z,12.60
2023-05-13T03:15:43.460Z,12.60
2023-05-13T03:18:12.339Z,12.60
2023-05-13T03:20:41.987Z,12.60
2023-05-13T03:23:09.964Z,12.60
2023-05-13T03:25:37.921Z,12.60
2023-05-13T03:28:06.455Z,12.50
2023-05-13T03:30:34.363Z,12.50
2023-05-13T03:33:02.362Z,12.50
2023-05-13T03:35:30.269Z,12.40
2023-05-13T03:37:59.625Z,12.40
2023-05-13T03:40:27.563Z,12.30
2023-05-13T03:42:55.509Z,12.30
2023-05-13T03:45:23.456Z,12.30
2023-05-13T03:47:51.470Z,12.20
2023-05-13T03:50:19.453Z,12.20
2023-05-13T03:52:47.811Z,12.20
2023-05-13T03:55:17.065Z,12.10
2023-05-13T03:57:49.558Z,12.10
2023-05-13T04:00:17.726Z,12.10
2023-05-13T04:02:45.960Z,12.10
2023-05-13T04:05:14.523Z,12.00
2023-05-13T04:07:42.882Z,12.00
2023-05-13T04:10:14.573Z,12.00
2023-05-13T04:12:44.752Z,12.00
2023-05-13T04:15:12.876Z,12.00
2023-05-13T04:17:40.698Z,11.90
2023-05-13T04:20:09.645Z,12.00
2023-05-13T04:22:37.525Z,11.90
2023-05-13T04:25:06.119Z,11.90
2023-05-13T04:27:34.026Z,11.90
2023-05-13T04:30:03.447Z,12.00
2023-05-13T04:32:31.302Z,12.00
2023-05-13T04:34:59.399Z,11.90
2023-05-13T04:37:27.387Z,12.00
2023-05-13T04:39:55.403Z,12.00
2023-05-13T04:42:23.313Z,12.10
2023-05-13T04:44:51.258Z,12.10
2023-05-13T04:47:20.612Z,12.10
2023-05-13T04:49:48.434Z,12.10
2023-05-13T04:52:16.751Z,12.20
2023-05-13T04:54:44.733Z,12.20
2023-05-13T04:57:12.576Z,12.20
2023-05-13T04:59:40.520Z,12.30
2023-05-13T05:02:08.467Z,12.30
2023-05-13T05:04:37.802Z,12.40
2023-05-13T05:07:06.001Z,12.50
2023-05-13T05:09:33.825Z,12.60
2023-05-13T05:12:01.687Z,12.60
2023-05-13T05:14:29.541Z,12.70
2023-05-13T05:16:57.439Z,12.70
2023-05-13T05:19:25.449Z,12.80
2023-05-13T05:21:54.799Z,12.90
2023-05-13T05:24:22.653Z,13.00
2023-05-13T05:26:50.522Z,13.10
2023-05-13T05:29:18.712Z,13.20
2023-05-13T05:31:46.664Z,13.20
2023-05-13T05:34:14.777Z,13.40
2023-05-13T05:36:42.637Z,13.40
2023-05-13T05:39:11.988Z,13.50
2023-05-13T05:41:39.893Z,13.60
2023-05-13T05:44:07.894Z,13.70
2023-05-13T05:46:37.240Z,13.80
2023-05-13T05:49:05.148Z,13.90
2023-05-13T05:51:33.118Z,13.90
2023-05-13T05:54:01.064Z,14.00
2023-05-13T05:56:30.236Z,14.10
2023-05-13T05:58:58.115Z,14.20
2023-05-13T06:01:26.074Z,14.30
2023-05-13T06:03:55.143Z,14.30
2023-05-13T06:06:23.195Z,14.40
2023-05-13T06:08:51.224Z,14.40
2023-05-13T06:11:19.106Z,14.50
2023-05-13T06:13:48.513Z,14.60
2023-05-13T06:16:16.434Z,14.70
2023-05-13T06:18:44.556Z,14.70
2023-05-13T06:21:12.487Z,14.70
2023-05-13T06:23:40.585Z,14.80
2023-05-13T06:26:08.533Z,14.90
2023-05-13T06:28:36.459Z,14.90
2023-05-13T06:31:05.902Z,15.00
2023-05-13T06:33:33.801Z,15.10
2023-05-13T06:36:01.800Z,15.20
2023-05-13T06:38:29.790Z,15.20
2023-05-13T06:40:57.734Z,15.30
2023-05-13T06:43:26.164Z,15.30
2023-05-13T06:45:54.084Z,15.40
2023-05-13T06:48:23.426Z,15.50
2023-05-13T06:50:51.281Z,15.60
2023-05-13T06:53:19.254Z,15.60
2023-05-13T06:55:47.213Z,15.70
2023-05-13T06:58:15.131Z,15.80
2023-05-13T07:00:43.044Z,15.80
2023-05-13T07:03:11.077Z,15.90
2023-05-13T07:05:40.314Z,15.90
2023-05-13T07:08:08.740Z,16.00
2023-05-13T07:10:37.768Z,16.10
2023-05-13T07:13:05.920Z,16.20
2023-05-13T07:15:33.779Z,16.20
2023-05-13T07:18:01.776Z,16.30
2023-05-13T07:20:30.389Z,16.30
2023-05-13T07:22:59.672Z,16.40
2023-05-13T07:25:27.657Z,16.50
2023-05-13T07:27:55.610Z,16.60
2023-05-13T07:30:23.918Z,16.70
2023-05-13T07:32:53.900Z,16.70
2023-05-13T07:35:22.306Z,16.80
2023-05-13T07:37:50.357Z,16.90
2023-05-13T07:40:21.147Z,17.00
2023-05-13T07:42:49.380Z,17.20
2023-05-13T07:45:17.629Z,17.30
2023-05-13T07:47:45.575Z,17.40
2023-05-13T07:50:13.511Z,17.50
2023-05-13T07:52:42.100Z,17.70
2023-05-13T07:55:11.218Z,17.80
2023-05-13T07:57:40.528Z,18.10
2023-05-13T08:00:09.489Z,18.30
2023-05-13T08:02:40.295Z,18.40
2023-05-13T08:05:08.962Z,18.60
2023-05-13T08:07:36.986Z,18.80
2023-05-13T08:10:05.441Z,19.00
2023-05-13T08:12:33.336Z,19.20
2023-05-13T08:15:04.779Z,19.50
2023-05-13T08:17:32.804Z,19.80
2023-05-13T08:20:01.964Z,20.10
2023-05-13T08:22:29.855Z,20.40
2023-05-13T08:24:59.394Z,20.80
2023-05-13T08:27:27.313Z,21.10
2023-05-13T08:29:55.288Z,21.20
2023-05-13T08:32:24.612Z,21.40
2023-05-13T08:34:52.496Z,21.60
2023-05-13T08:37:20.401Z,21.70
2023-05-13T08:39:48.622Z,21.90
2023-05-13T08:42:19.373Z,22.00
2023-05-13T08:44:49.618Z,22.20
2023-05-13T08:47:28.784Z,22.30
2023-05-13T08:49:57.290Z,22.30
2023-05-13T08:52:26.184Z,22.30
2023-05-13T08:54:55.427Z,22.30
2023-05-13T08:57:23.385Z,22.40
2023-05-13T08:59:51.366Z,22.50
2023-05-13T09:02:19.512Z,22.80
2023-05-13T09:04:53.703Z,23.10
2023-05-13T09:07:21.745Z,23.60
2023-05-13T09:09:49.814Z,24.30
2023-05-13T09:12:49.284Z,25.10
2023-05-13T09:15:19.181Z,26.30
2023-05-13T09:17:51.363Z,27.40
2023-05-13T09:20:21.929Z,28.10
2023-05-13T09:22:52.089Z,29.50
2023-05-13T09:25:24.422Z,31.60
2023-05-13T09:27:54.190Z,33.80
2023-05-13T09:30:22.506Z,35.90
2023-05-13T09:33:07.465Z,37.70
2023-05-13T09:35:38.442Z,39.40
2023-05-13T09:38:16.931Z,40.60
2023-05-13T09:40:52.261Z,41.80
2023-05-13T09:43:21.486Z,42.90
2023-05-13T09:45:53.562Z,43.70
2023-05-13T09:48:22.739Z,44.30
2023-05-13T09:50:52.542Z,44.80
2023-05-13T09:53:21.247Z,45.20
2023-05-13T09:55:49.997Z,45.80
2023-05-13T09:58:19.063Z,46.20
2023-05-13T10:00:47.630Z,46.70
2023-05-13T10:03:16.181Z,47.00
2023-05-13T10:05:44.269Z,47.20
2023-05-13T10:08:15.007Z,47.50
2023-05-13T10:10:45.629Z,47.80
2023-05-13T10:13:15.588Z,48.10
2023-05-13T10:15:50.252Z,47.70
2023-05-13T10:18:19.011Z,45.90
2023-05-13T10:20:47.679Z,43.70
2023-05-13T10:23:17.666Z,41.50
2023-05-13T10:25:48.007Z,39.70
2023-05-13T10:28:16.656Z,38.20
2023-05-13T10:30:45.257Z,37.10
2023-05-13T10:33:13.459Z,37.00
2023-05-13T10:35:48.030Z,36.40
2023-05-13T10:38:23.050Z,35.50
2023-05-13T10:41:08.068Z,34.40
2023-05-13T10:43:36.575Z,33.10
2023-05-13T10:46:06.808Z,32.00
2023-05-13T10:48:41.301Z,31.20
2023-05-13T10:51:09.468Z,30.30
2023-05-13T10:53:47.412Z,29.50
2023-05-13T10:56:15.852Z,28.70
2023-05-13T10:58:43.719Z,28.00
2023-05-13T11:01:15.449Z,27.30
2023-05-13T11:03:51.061Z,26.70
2023-05-13T11:06:20.399Z,26.00
2023-05-13T11:08:52.120Z,25.40
2023-05-13T11:11:26.318Z,24.80
2023-05-13T11:13:55.360Z,24.50
2023-05-13T11:16:23.952Z,24.20
2023-05-13T11:18:53.534Z,24.10
2023-05-13T11:21:31.568Z,24.00
2023-05-13T11:24:03.915Z,23.80
2023-05-13T11:26:48.407Z,23.50
2023-05-13T11:29:16.924Z,23.10
2023-05-13T11:31:48.899Z,22.70
2023-05-13T11:34:18.140Z,22.10
2023-05-13T11:36:47.691Z,21.70
2023-05-13T11:39:18.750Z,21.00
2023-05-13T11:41:48.537Z,20.20
2023-05-13T11:44:18.700Z,19.50
2023-05-13T11:46:54.642Z,18.70
2023-05-13T11:49:37.223Z,17.90
2023-05-13T11:52:06.964Z,17.30
2023-05-13T11:54:43.007Z,16.90
2023-05-13T11:57:21.622Z,16.70
2023-05-13T11:59:54.195Z,16.60
2023-05-13T12:02:23.449Z,16.50
2023-05-13T12:04:52.528Z,16.40
2023-05-13T12:07:24.654Z,16.40
2023-05-13T12:09:57.437Z,16.40
2023-05-13T12:12:26.736Z,16.40
2023-05-13T12:14:59.578Z,16.50
2023-05-13T12:17:28.007Z,16.60
2023-05-13T12:20:10.291Z,16.70
2023-05-13T12:22:38.937Z,16.80
2023-05-13T12:25:40.825Z,16.90
2023-05-13T12:28:10.385Z,17.00
2023-05-13T12:30:39.376Z,17.10
2023-05-13T12:33:13.069Z,17.30
2023-05-13T12:35:40.964Z,17.40
2023-05-13T12:38:08.823Z,17.50
2023-05-13T12:40:36.655Z,17.60
2023-05-13T12:43:05.868Z,17.60
2023-05-13T12:45:34.400Z,17.60
2023-05-13T12:48:03.242Z,17.60
2023-05-13T12:50:31.481Z,17.60
2023-05-13T12:53:00.254Z,17.70
2023-05-13T12:55:28.520Z,17.80
2023-05-13T12:57:59.250Z,17.90
2023-05-13T13:00:29.504Z,18.00
2023-05-13T13:02:57.946Z,18.20
2023-05-13T13:05:26.522Z,18.60
2023-05-13T13:07:54.522Z,19.00
2023-05-13T13:10:22.615Z,19.50
2023-05-13T13:12:50.768Z,20.00
2023-05-13T13:15:18.904Z,20.50
2023-05-13T13:17:48.256Z,21.00
2023-05-13T13:20:16.235Z,21.30
2023-05-13T13:22:44.097Z,21.60
2023-05-13T13:25:12.248Z,21.90
2023-05-13T13:27:40.148Z,22.20
2023-05-13T13:30:09.168Z,22.30
2023-05-13T13:32:37.028Z,22.50
2023-05-13T13:35:07.083Z,22.70
2023-05-13T13:37:36.076Z,22.90
2023-05-13T13:40:04.899Z,23.20
2023-05-13T13:42:43.253Z,23.20
2023-05-13T13:45:12.800Z,23.20
2023-05-13T13:47:40.654Z,23.20
2023-05-13T13:50:10.864Z,23.20
2023-05-13T13:52:38.759Z,23.30
2023-05-13T13:55:07.801Z,23.30
2023-05-13T13:57:35.662Z,23.30
2023-05-13T14:00:03.557Z,23.30
2023-05-13T14:02:31.631Z,23.30
2023-05-13T14:04:59.822Z,23.20
2023-05-13T14:07:29.370Z,23.10
2023-05-13T14:09:59.545Z,23.10
2023-05-13T14:12:28.875Z,23.10
2023-05-13T14:14:56.910Z,23.20
2023-05-13T14:17:24.900Z,23.40
2023-05-13T14:19:55.344Z,23.60
2023-05-13T14:22:24.052Z,23.80
2023-05-13T14:24:53.689Z,23.80
2023-05-13T14:27:24.583Z,23.80
2023-05-13T14:29:53.015Z,23.60
2023-05-13T14:32:20.904Z,23.40
2023-05-13T14:34:48.748Z,23.30
2023-05-13T14:37:16.611Z,23.00
2023-05-13T14:39:44.981Z,22.60
2023-05-13T14:42:14.859Z,22.30
2023-05-13T14:44:42.737Z,22.00
2023-05-13T14:47:11.075Z,21.60
2023-05-13T14:49:39.051Z,21.30
2023-05-13T14:52:07.088Z,21.10
2023-05-13T14:54:37.770Z,21.10
2023-05-13T14:57:07.479Z,21.10
2023-05-13T14:59:37.076Z,21.20
2023-05-13T15:02:06.225Z,21.20
2023-05-13T15:04:34.134Z,21.50
2023-05-13T15:07:03.656Z,21.70
2023-05-13T15:09:31.631Z,22.00
2023-05-13T15:11:59.529Z,22.20
2023-05-13T15:14:28.277Z,22.30
2023-05-13T15:16:58.068Z,22.50
2023-05-13T15:19:25.939Z,22.70
2023-05-13T15:21:54.205Z,22.90
2023-05-13T15:24:22.249Z,23.00
2023-05-13T15:26:50.545Z,23.30
2023-05-13T15:29:18.492Z,23.40
2023-05-13T15:31:46.383Z,23.60
2023-05-13T15:34:15.666Z,23.70
2023-05-13T15:36:43.527Z,23.70
2023-05-13T15:39:11.836Z,23.60
2023-05-13T15:41:39.694Z,23.40
2023-05-13T15:44:07.510Z,23.20
2023-05-13T15:46:35.911Z,23.10
2023-05-13T15:49:03.902Z,22.90
2023-05-13T15:51:33.311Z,22.70
2023-05-13T15:54:01.340Z,22.40
2023-05-13T15:56:29.334Z,22.20
2023-05-13T15:58:57.184Z,22.00
2023-05-13T16:01:25.102Z,21.70
2023-05-13T16:03:53.086Z,21.50
2023-05-13T16:06:21.174Z,21.30
2023-05-13T16:08:50.411Z,21.20
2023-05-13T16:11:18.647Z,21.10
2023-05-13T16:13:46.550Z,20.90
2023-05-13T16:16:14.588Z,20.80
2023-05-13T16:18:43.204Z,20.80
2023-05-13T16:21:11.154Z,20.80
2023-05-13T16:23:39.250Z,20.70
2023-05-13T16:26:08.562Z,20.80
2023-05-13T16:28:36.425Z,20.90
2023-05-13T16:31:04.375Z,20.90
2023-05-13T16:33:33.691Z,20.90
2023-05-13T16:36:01.612Z,20.80
2023-05-13T16:38:30.417Z,20.80
2023-05-13T16:40:58.413Z,20.70
2023-05-13T16:43:27.561Z,20.70
2023-05-13T16:45:55.575Z,20.70
2023-05-13T16:48:23.599Z,20.60
2023-05-13T16:50:52.074Z,20.50
2023-05-13T16:53:22.099Z,20.40
2023-05-13T16:55:50.595Z,20.30
2023-05-13T16:58:18.936Z,20.20
2023-05-13T17:00:48.270Z,20.10
2023-05-13T17:03:16.422Z,20.00
2023-05-13T17:05:44.653Z,19.90
2023-05-13T17:08:12.515Z,20.00
2023-05-13T17:10:40.524Z,19.90
2023-05-13T17:13:08.499Z,19.90
2023-05-13T17:15:36.485Z,19.80
2023-05-13T17:18:05.830Z,19.80
2023-05-13T17:20:33.814Z,19.70
2023-05-13T17:23:01.769Z,19.70
2023-05-13T17:25:29.678Z,19.70
2023-05-13T17:27:57.593Z,19.60
2023-05-13T17:30:25.639Z,19.50
2023-05-13T17:32:53.585Z,19.50
2023-05-13T17:35:23.145Z,19.40
2023-05-13T17:37:51.070Z,19.30
2023-05-13T17:40:18.934Z,19.40
2023-05-13T17:42:46.832Z,19.30
2023-05-13T17:45:14.749Z,19.30
2023-05-13T17:47:42.870Z,19.30
2023-05-13T17:50:13.248Z,19.30
2023-05-13T17:52:42.543Z,19.30
2023-05-13T17:55:10.894Z,19.40
2023-05-13T17:57:38.845Z,19.40
2023-05-13T18:00:08.166Z,19.40
2023-05-13T18:02:37.098Z,19.40
2023-05-13T18:05:05.284Z,19.40
2023-05-13T18:07:33.189Z,19.40
2023-05-13T18:10:02.555Z,19.30
2023-05-13T18:12:30.533Z,19.30
2023-05-13T18:14:58.528Z,19.20
2023-05-13T18:17:27.361Z,19.20
2023-05-13T18:19:55.550Z,19.20
2023-05-13T18:22:23.545Z,19.20
2023-05-13T18:24:51.667Z,19.10
2023-05-13T18:27:21.508Z,19.10
2023-05-13T18:29:49.553Z,19.10
2023-05-13T18:32:18.096Z,19.00
2023-05-13T18:34:46.113Z,19.00
2023-05-13T18:37:14.886Z,19.00
2023-05-13T18:39:45.754Z,19.00
2023-05-13T18:42:13.733Z,18.90
2023-05-13T18:44:43.495Z,18.90
2023-05-13T18:47:11.923Z,18.80
2023-05-13T18:49:39.979Z,18.80
2023-05-13T18:52:08.335Z,18.70
2023-05-13T18:54:36.490Z,18.70
2023-05-13T18:57:04.588Z,18.70
2023-05-13T18:59:32.586Z,18.60
2023-05-13T19:02:01.993Z,18.60
2023-05-13T19:04:30.325Z,18.50
2023-05-13T19:06:58.361Z,18.50
2023-05-13T19:09:26.325Z,18.40
2023-05-13T19:11:54.305Z,18.30
2023-05-13T19:14:22.325Z,18.30
2023-05-13T19:16:50.310Z,18.30
2023-05-13T19:19:19.620Z,18.20
2023-05-13T19:21:47.434Z,18.20
2023-05-13T19:24:15.347Z,18.20
2023-05-13T19:26:43.309Z,18.10
2023-05-13T19:29:11.258Z,18.10
2023-05-13T19:31:39.427Z,18.00
2023-05-13T19:34:07.769Z,17.90
2023-05-13T19:36:37.177Z,17.80
2023-05-13T19:39:05.319Z,17.70
2023-05-13T19:41:34.461Z,17.70
2023-05-13T19:44:02.417Z,17.60
2023-05-13T19:46:30.507Z,17.50
2023-05-13T19:48:58.461Z,17.40
2023-05-13T19:51:26.800Z,17.40
2023-05-13T19:53:56.745Z,17.30
2023-05-13T19:56:24.787Z,17.20
2023-05-13T19:58:52.699Z,17.10
2023-05-13T20:01:20.692Z,17.00
2023-05-13T20:03:48.678Z,16.90
2023-05-13T20:06:16.700Z,16.90
2023-05-13T20:08:44.696Z,16.80
2023-05-13T20:11:14.023Z,16.70
2023-05-13T20:13:41.937Z,16.60
2023-05-13T20:16:09.990Z,16.60
2023-05-13T20:18:38.378Z,16.40
2023-05-13T20:21:07.212Z,16.40
2023-05-13T20:23:35.492Z,16.30
2023-05-13T20:26:03.777Z,16.20
2023-05-13T20:28:33.558Z,16.10
2023-05-13T20:31:02.940Z,16.10
2023-05-13T20:33:31.200Z,16.00
2023-05-13T20:35:59.454Z,15.90
2023-05-13T20:38:27.695Z,15.80
2023-05-13T20:40:56.209Z,15.80
2023-05-13T20:43:24.317Z,15.70
2023-05-13T20:45:53.746Z,15.70
2023-05-13T20:48:21.899Z,15.60
2023-05-13T20:50:49.803Z,15.60
2023-05-13T20:53:17.698Z,15.50
2023-05-13T20:55:45.650Z,15.50
2023-05-13T20:58:13.526Z,15.40
2023-05-13T21:00:41.490Z,15.40
2023-05-13T21:03:11.581Z,15.30
2023-05-13T21:05:39.598Z,15.30
2023-05-13T21:08:07.513Z,15.20
2023-05-13T21:10:35.419Z,15.20
2023-05-13T21:13:03.368Z,15.10
2023-05-13T21:15:31.505Z,15.10
2023-05-13T21:17:59.529Z,15.00
2023-05-13T21:20:28.856Z,15.00
2023-05-13T21:22:56.787Z,15.00
2023-05-13T21:25:24.733Z,14.90
2023-05-13T21:27:52.637Z,14.80
2023-05-13T21:30:20.662Z,14.80
2023-05-13T21:32:48.717Z,14.80
2023-05-13T21:35:17.031Z,14.70
2023-05-13T21:37:47.597Z,14.70
2023-05-13T21:40:15.933Z,14.70
2023-05-13T21:42:43.841Z,14.60
2023-05-13T21:45:12.807Z,14.60
2023-05-13T21:47:41.013Z,14.50
2023-05-13T21:50:11.135Z,14.50
2023-05-13T21:52:39.782Z,14.50
2023-05-13T21:55:10.319Z,14.40
2023-05-13T21:57:38.403Z,14.40
2023-05-13T22:00:10.475Z,14.30
2023-05-13T22:02:38.826Z,14.30
2023-05-13T22:05:07.842Z,14.20
2023-05-13T22:07:36.192Z,14.20
2023-05-13T22:10:04.221Z,14.20
2023-05-13T22:12:33.702Z,14.10
2023-05-13T22:15:01.665Z,14.10
2023-05-13T22:17:30.030Z,14.00
2023-05-13T22:19:58.135Z,14.00
2023-05-13T22:22:26.156Z,13.90
2023-05-13T22:24:54.041Z,13.90
2023-05-13T22:27:22.273Z,13.80
2023-05-13T22:29:51.484Z,13.70
2023-05-13T22:32:19.382Z,13.70
2023-05-13T22:34:47.208Z,13.60
2023-05-13T22:37:15.108Z,13.60
2023-05-13T22:39:42.957Z,13.50
2023-05-13T22:42:10.836Z,13.50
2023-05-13T22:44:38.763Z,13.50
2023-05-13T22:47:08.528Z,13.40
2023-05-13T22:49:36.590Z,13.40
2023-05-13T22:52:04.793Z,13.30
2023-05-13T22:54:32.700Z,13.30
2023-05-13T22:57:00.553Z,13.30
2023-05-13T22:59:28.465Z,13.20
2023-05-13T23:01:56.368Z,13.20
2023-05-13T23:04:25.902Z,13.20
2023-05-13T23:06:53.796Z,13.10
2023-05-13T23:09:21.615Z,13.10
2023-05-13T23:11:49.745Z,13.00
2023-05-13T23:14:17.843Z,13.00
2023-05-13T23:16:45.777Z,13.00
2023-05-13T23:19:13.930Z,12.90
2023-05-13T23:21:43.289Z,12.90
2023-05-13T23:24:11.139Z,12.90
2023-05-13T23:26:39.128Z,12.80
2023-05-13T23:29:07.010Z,12.80
2023-05-13T23:31:35.009Z,12.80
2023-05-13T23:34:02.961Z,12.70
2023-05-13T23:36:31.050Z,12.70
2023-05-13T23:39:00.321Z,12.70
2023-05-13T23:41:28.582Z,12.60
2023-05-13T23:43:56.398Z,12.60
2023-05-13T23:46:24.500Z,12.60
2023-05-13T23:48:52.572Z,12.50
2023-05-13T23:51:20.747Z,12.50
2023-05-13T23:53:48.703Z,12.50
2023-05-13T23:56:17.883Z,12.40
2023-05-13T23:58:45.780Z,12.40
